sensor_id;sensor_type;location;lat;lon;timestamp;pressure;altitude;pressure_sealevel;temperature;humidity
72707;BME280;62517;62.630;17.936;2022-10-16T07:15:17;99904.20;;;17.34;38.31
72707;BME280;62517;62.630;17.936;2022-10-16T07:17:47;99902.76;;;17.35;37.97
72707;BME280;62517;62.630;17.936;2022-10-16T07:20:15;99898.70;;;17.31;37.70
72707;BME280;62517;62.630;17.936;2022-10-16T07:22:43;99908.59;;;17.41;37.56
72707;BME280;62517;62.630;17.936;2022-10-16T07:25:11;99906.39;;;17.46;37.39
72707;BME280;62517;62.630;17.936;2022-10-16T07:27:41;99906.94;;;17.47;37.19
72707;BME280;62517;62.630;17.936;2022-10-16T07:30:09;99911.31;;;17.67;37.04
72707;BME280;62517;62.630;17.936;2022-10-16T07:32:38;99905.09;;;17.81;36.86
72707;BME280;62517;62.630;17.936;2022-10-16T07:35:07;99902.63;;;18.11;36.63
72707;BME280;62517;62.630;17.936;2022-10-16T07:37:36;99902.08;;;18.31;36.49
72707;BME280;62517;62.630;17.936;2022-10-16T07:40:05;99900.42;;;18.60;36.22
72707;BME280;62517;62.630;17.936;2022-10-16T07:42:33;99903.98;;;18.83;35.88
72707;BME280;62517;62.630;17.936;2022-10-16T07:45:01;99899.96;;;19.03;35.59
72707;BME280;62517;62.630;17.936;2022-10-16T07:47:29;99903.84;;;19.25;35.36
72707;BME280;62517;62.630;17.936;2022-10-16T07:49:57;99903.49;;;19.55;35.19
72707;BME280;62517;62.630;17.936;2022-10-16T07:52:25;99909.87;;;19.84;34.98
72707;BME280;62517;62.630;17.936;2022-10-16T07:54:53;99908.35;;;20.01;34.73
72707;BME280;62517;62.630;17.936;2022-10-16T07:57:21;99897.65;;;20.12;34.59
72707;BME280;62517;62.630;17.936;2022-10-16T07:59:48;99912.65;;;20.22;34.42
72707;BME280;62517;62.630;17.936;2022-10-16T08:02:16;99914.24;;;20.41;34.25
72707;BME280;62517;62.630;17.936;2022-10-16T08:04:47;99915.95;;;20.67;34.12
72707;BME280;62517;62.630;17.936;2022-10-16T08:07:16;99916.77;;;20.81;34.00
72707;BME280;62517;62.630;17.936;2022-10-16T08:09:43;99914.87;;;20.95;33.87
72707;BME280;62517;62.630;17.936;2022-10-16T08:12:11;99914.23;;;21.05;33.84
72707;BME280;62517;62.630;17.936;2022-10-16T08:14:39;99920.82;;;21.08;33.42
72707;BME280;62517;62.630;17.936;2022-10-16T08:17:07;99917.84;;;21.36;33.62
72707;BME280;62517;62.630;17.936;2022-10-16T08:19:35;99915.46;;;21.37;33.52
72707;BME280;62517;62.630;17.936;2022-10-16T08:22:03;99916.25;;;21.38;33.50
72707;BME280;62517;62.630;17.936;2022-10-16T08:24:31;99919.07;;;21.57;33.38
72707;BME280;62517;62.630;17.936;2022-10-16T08:26:58;99922.73;;;21.73;33.30
72707;BME280;62517;62.630;17.936;2022-10-16T08:29:26;99923.42;;;21.71;33.27
72707;BME280;62517;62.630;17.936;2022-10-16T08:31:54;99927.23;;;21.84;33.23
72707;BME280;62517;62.630;17.936;2022-10-16T08:34:22;99927.11;;;21.86;33.26
72707;BME280;62517;62.630;17.936;2022-10-16T08:36:53;99926.68;;;21.80;33.10
72707;BME280;62517;62.630;17.936;2022-10-16T08:39:21;99933.68;;;22.11;32.83
72707;BME280;62517;62.630;17.936;2022-10-16T08:42:03;99928.54;;;22.12;32.90
72707;BME280;62517;62.630;17.936;2022-10-16T08:44:53;99930.66;;;22.40;32.99
72707;BME280;62517;62.630;17.936;2022-10-16T08:47:28;99930.66;;;22.33;32.95
72707;BME280;62517;62.630;17.936;2022-10-16T08:50:09;99931.16;;;22.48;32.91
72707;BME280;62517;62.630;17.936;2022-10-16T08:52:42;99931.04;;;22.50;32.87
72707;BME280;62517;62.630;17.936;2022-10-16T08:55:25;99932.27;;;22.54;32.84
72707;BME280;62517;62.630;17.936;2022-10-16T08:57:56;99933.09;;;22.62;32.75
72707;BME280;62517;62.630;17.936;2022-10-16T09:00:26;99930.92;;;22.62;32.72
72707;BME280;62517;62.630;17.936;2022-10-16T09:03:03;99931.20;;;22.76;32.72
72707;BME280;62517;62.630;17.936;2022-10-16T09:05:48;99926.30;;;22.88;32.54
72707;BME280;62517;62.630;17.936;2022-10-16T09:08:28;99920.26;;;22.98;32.55
72707;BME280;62517;62.630;17.936;2022-10-16T09:11:03;99918.30;;;22.95;32.54
72707;BME280;62517;62.630;17.936;2022-10-16T09:13:45;99922.41;;;22.98;32.47
72707;BME280;62517;62.630;17.936;2022-10-16T09:16:19;99925.25;;;23.09;32.44
72707;BME280;62517;62.630;17.936;2022-10-16T09:18:55;99926.18;;;23.09;32.40
72707;BME280;62517;62.630;17.936;2022-10-16T09:21:28;99928.27;;;23.20;32.38
72707;BME280;62517;62.630;17.936;2022-10-16T09:24:04;99928.75;;;23.16;32.38
72707;BME280;62517;62.630;17.936;2022-10-16T09:26:37;99932.49;;;23.21;32.33
72707;BME280;62517;62.630;17.936;2022-10-16T09:29:05;99934.12;;;23.31;32.31
72707;BME280;62517;62.630;17.936;2022-10-16T09:31:36;99931.26;;;23.33;32.27
72707;BME280;62517;62.630;17.936;2022-10-16T09:34:05;99930.16;;;23.25;32.20
72707;BME280;62517;62.630;17.936;2022-10-16T09:36:42;99930.78;;;23.37;32.32
72707;BME280;62517;62.630;17.936;2022-10-16T09:39:11;99929.64;;;23.34;32.32
72707;BME280;62517;62.630;17.936;2022-10-16T09:41:41;99928.74;;;23.40;32.21
72707;BME280;62517;62.630;17.936;2022-10-16T09:44:19;99928.21;;;23.43;32.22
72707;BME280;62517;62.630;17.936;2022-10-16T09:47:01;99927.54;;;23.44;32.22
72707;BME280;62517;62.630;17.936;2022-10-16T09:49:30;99927.16;;;23.49;32.01
72707;BME280;62517;62.630;17.936;2022-10-16T09:52:04;99927.21;;;23.49;32.06
72707;BME280;62517;62.630;17.936;2022-10-16T09:54:32;99930.23;;;23.41;32.22
72707;BME280;62517;62.630;17.936;2022-10-16T09:57:06;99927.32;;;23.70;32.14
72707;BME280;62517;62.630;17.936;2022-10-16T09:59:47;99929.74;;;23.58;32.20
